sensor_id;sensor_type;location;lat;lon;timestamp;temperature;humidity
63435;DHT22;68814;50.872;5.306;2024-01-15T00:23:18;1.60;99.90
63435;DHT22;68814;50.872;5.306;2024-01-15T00:28:20;1.60;99.90
63435;DHT22;68814;50.872;5.306;2024-01-15T00:30:46;1.60;99.90
63435;DHT22;68814;50.872;5.306;2024-01-15T00:35:50;1.60;99.90
63435;DHT22;68814;50.872;5.306;2024-01-15T00:40:45;1.70;99.90
63435;DHT22;68814;50.872;5.306;2024-01-15T00:45:47;1.70;99.90
63435;DHT22;68814;50.872;5.306;2024-01-15T00:53:24;1.60;99.90
63435;DHT22;68814;50.872;5.306;2024-01-15T00:55:49;1.60;99.90
63435;DHT22;68814;50.872;5.306;2024-01-15T01:00:51;1.50;99.90
63435;DHT22;68814;50.872;5.306;2024-01-15T01:03:17;1.50;99.90
63435;DHT22;68814;50.872;5.306;2024-01-15T01:05:43;1.50;99.90
63435;DHT22;68814;50.872;5.306;2024-01-15T01:10:44;1.50;99.90
63435;DHT22;68814;50.872;5.306;2024-01-15T01:20:53;1.40;99.90
63435;DHT22;68814;50.872;5.306;2024-01-15T01:23:19;1.50;99.90
63435;DHT22;68814;50.872;5.306;2024-01-15T01:36:08;1.50;99.90
63435;DHT22;68814;50.872;5.306;2024-01-15T01:41:12;1.40;99.90
63435;DHT22;68814;50.872;5.306;2024-01-15T01:48:48;1.50;99.90
63435;DHT22;68814;50.872;5.306;2024-01-15T01:59:01;1.50;99.90
63435;DHT22;68814;50.872;5.306;2024-01-15T02:01:29;1.50;99.90
63435;DHT22;68814;50.872;5.306;2024-01-15T10:02:52;2.00;99.90
63435;DHT22;68814;50.872;5.306;2024-01-15T10:05:18;2.00;99.90
63435;DHT22;68814;50.872;5.306;2024-01-15T10:07:45;2.00;99.90
63435;DHT22;68814;50.872;5.306;2024-01-15T10:10:15;2.10;99.90
63435;DHT22;68814;50.872;5.306;2024-01-15T10:12:42;2.10;99.90
63435;DHT22;68814;50.872;5.306;2024-01-15T10:15:10;2.10;99.90
63435;DHT22;68814;50.872;5.306;2024-01-15T10:17:39;2.20;99.90
63435;DHT22;68814;50.872;5.306;2024-01-15T10:20:11;2.20;99.90
63435;DHT22;68814;50.872;5.306;2024-01-15T10:22:45;2.20;99.90
63435;DHT22;68814;50.872;5.306;2024-01-15T10:25:14;2.30;99.90
63435;DHT22;68814;50.872;5.306;2024-01-15T10:27:43;2.30;99.90
63435;DHT22;68814;50.872;5.306;2024-01-15T10:30:10;2.40;99.90
63435;DHT22;68814;50.872;5.306;2024-01-15T10:32:37;2.40;99.90
63435;DHT22;68814;50.872;5.306;2024-01-15T10:35:03;2.40;99.90
63435;DHT22;68814;50.872;5.306;2024-01-15T10:37:33;2.50;99.90
63435;DHT22;68814;50.872;5.306;2024-01-15T10:40:02;2.70;99.90
63435;DHT22;68814;50.872;5.306;2024-01-15T10:45:06;3.00;99.90
63435;DHT22;68814;50.872;5.306;2024-01-15T10:47:35;3.10;99.90
63435;DHT22;68814;50.872;5.306;2024-01-15T10:50:02;3.20;99.90
63435;DHT22;68814;50.872;5.306;2024-01-15T10:52:29;3.30;99.90
63435;DHT22;68814;50.872;5.306;2024-01-15T10:54:55;3.40;99.90
63435;DHT22;68814;50.872;5.306;2024-01-15T10:57:21;3.50;99.90
63435;DHT22;68814;50.872;5.306;2024-01-15T10:59:48;3.50;99.90
63435;DHT22;68814;50.872;5.306;2024-01-15T11:02:15;3.50;99.90
63435;DHT22;68814;50.872;5.306;2024-01-15T11:04:40;3.60;99.90
63435;DHT22;68814;50.872;5.306;2024-01-15T11:07:07;3.70;99.90
63435;DHT22;68814;50.872;5.306;2024-01-15T11:09:37;3.80;99.90
63435;DHT22;68814;50.872;5.306;2024-01-15T11:12:13;3.90;99.90
63435;DHT22;68814;50.872;5.306;2024-01-15T11:14:44;3.90;99.90
63435;DHT22;68814;50.872;5.306;2024-01-15T11:17:12;4.00;99.90
63435;DHT22;68814;50.872;5.306;2024-01-15T11:24:56;4.30;99.90
63435;DHT22;68814;50.872;5.306;2024-01-15T11:27:43;4.40;99.90
63435;DHT22;68814;50.872;5.306;2024-01-15T11:30:11;4.50;99.90
63435;DHT22;68814;50.872;5.306;2024-01-15T11:32:37;4.70;99.90
63435;DHT22;68814;50.872;5.306;2024-01-15T11:35:07;4.80;99.90
63435;DHT22;68814;50.872;5.306;2024-01-15T11:40:20;5.10;99.90
63435;DHT22;68814;50.872;5.306;2024-01-15T11:42:47;5.00;99.90
63435;DHT22;68814;50.872;5.306;2024-01-15T11:45:15;4.90;99.90
63435;DHT22;68814;50.872;5.306;2024-01-15T11:50:46;4.50;99.90
63435;DHT22;68814;50.872;5.306;2024-01-15T11:53:37;4.20;99.90
63435;DHT22;68814;50.872;5.306;2024-01-15T11:56:14;4.10;99.90
63435;DHT22;68814;50.872;5.306;2024-01-15T11:58:42;4.00;99.90
63435;DHT22;68814;50.872;5.306;2024-01-15T12:01:12;3.90;99.90
63435;DHT22;68814;50.872;5.306;2024-01-15T12:03:39;3.80;99.90
63435;DHT22;68814;50.872;5.306;2024-01-15T12:06:07;3.70;99.90
63435;DHT22;68814;50.872;5.306;2024-01-15T12:08:33;3.60;99.90
63435;DHT22;68814;50.872;5.306;2024-01-15T12:10:59;3.50;99.90
63435;DHT22;68814;50.872;5.306;2024-01-15T12:13:24;3.40;99.90
63435;DHT22;68814;50.872;5.306;2024-01-15T12:15:50;3.30;99.90
63435;DHT22;68814;50.872;5.306;2024-01-15T12:18:17;3.20;99.90
63435;DHT22;68814;50.872;5.306;2024-01-15T12:20:44;3.20;99.90
63435;DHT22;68814;50.872;5.306;2024-01-15T12:23:12;3.30;99.90
63435;DHT22;68814;50.872;5.306;2024-01-15T12:25:39;3.20;99.90
63435;DHT22;68814;50.872;5.306;2024-01-15T12:28:06;3.20;99.90
63435;DHT22;68814;50.872;5.306;2024-01-15T12:30:33;3.00;99.90
63435;DHT22;68814;50.872;5.306;2024-01-15T12:33:03;3.00;99.90
63435;DHT22;68814;50.872;5.306;2024-01-15T12:35:29;2.90;99.90
63435;DHT22;68814;50.872;5.306;2024-01-15T12:37:56;2.80;99.90
63435;DHT22;68814;50.872;5.306;2024-01-15T12:40:22;2.60;99.90
63435;DHT22;68814;50.872;5.306;2024-01-15T12:42:49;2.50;99.90
63435;DHT22;68814;50.872;5.306;2024-01-15T12:45:14;2.40;99.90
63435;DHT22;68814;50.872;5.306;2024-01-15T12:47:41;2.30;99.90
63435;DHT22;68814;50.872;5.306;2024-01-15T12:50:12;2.20;99.90
63435;DHT22;68814;50.872;5.306;2024-01-15T12:52:39;2.10;99.90
63435;DHT22;68814;50.872;5.306;2024-01-15T12:55:06;2.10;99.90
63435;DHT22;68814;50.872;5.306;2024-01-15T12:57:33;2.00;99.90
63435;DHT22;68814;50.872;5.306;2024-01-15T12:59:59;2.00;99.90
63435;DHT22;68814;50.872;5.306;2024-01-15T13:02:25;2.00;99.90
63435;DHT22;68814;50.872;5.306;2024-01-15T13:04:51;1.90;99.90
63435;DHT22;68814;50.872;5.306;2024-01-15T13:07:17;1.90;99.90
63435;DHT22;68814;50.872;5.306;2024-01-15T13:09:44;1.90;99.90
63435;DHT22;68814;50.872;5.306;2024-01-15T13:15:32;1.90;99.90
63435;DHT22;68814;50.872;5.306;2024-01-15T13:17:58;1.90;99.90
63435;DHT22;68814;50.872;5.306;2024-01-15T13:20:24;1.90;99.90
63435;DHT22;68814;50.872;5.306;2024-01-15T13:22:50;1.90;99.90
63435;DHT22;68814;50.872;5.306;2024-01-15T13:25:16;1.80;99.90
63435;DHT22;68814;50.872;5.306;2024-01-15T13:27:42;1.80;99.90
63435;DHT22;68814;50.872;5.306;2024-01-15T13:30:09;1.80;99.90
63435;DHT22;68814;50.872;5.306;2024-01-15T13:32:36;1.70;99.90
63435;DHT22;68814;50.872;5.306;2024-01-15T13:35:09;1.70;99.90
63435;DHT22;68814;50.872;5.306;2024-01-15T13:37:38;1.70;99.90
63435;DHT22;68814;50.872;5.306;2024-01-15T13:40:07;1.70;99.90
63435;DHT22;68814;50.872;5.306;2024-01-15T13:42:35;1.60;99.90
63435;DHT22;68814;50.872;5.306;2024-01-15T13:45:05;1.60;99.90
63435;DHT22;68814;50.872;5.306;2024-01-15T13:47:32;1.60;99.90
63435;DHT22;68814;50.872;5.306;2024-01-15T13:49:59;1.70;99.90
63435;DHT22;68814;50.872;5.306;2024-01-15T13:52:26;1.60;99.90
63435;DHT22;68814;50.872;5.306;2024-01-15T14:44:09;2.10;99.90
63435;DHT22;68814;50.872;5.306;2024-01-15T14:51:40;1.90;99.90
63435;DHT22;68814;50.872;5.306;2024-01-15T14:54:07;1.90;99.90
63435;DHT22;68814;50.872;5.306;2024-01-15T14:56:34;1.90;99.90
63435;DHT22;68814;50.872;5.306;2024-01-15T14:59:00;1.80;99.90
63435;DHT22;68814;50.872;5.306;2024-01-15T15:01:25;1.80;99.90
63435;DHT22;68814;50.872;5.306;2024-01-15T15:03:51;1.80;99.90
63435;DHT22;68814;50.872;5.306;2024-01-15T15:06:19;1.70;99.90
63435;DHT22;68814;50.872;5.306;2024-01-15T15:08:46;1.70;99.90
63435;DHT22;68814;50.872;5.306;2024-01-15T15:18:53;1.70;99.90
63435;DHT22;68814;50.872;5.306;2024-01-15T15:21:20;1.70;99.90
63435;DHT22;68814;50.872;5.306;2024-01-15T15:23:47;1.70;99.90
63435;DHT22;68814;50.872;5.306;2024-01-15T15:26:16;1.70;99.90
63435;DHT22;68814;50.872;5.306;2024-01-15T15:28:42;1.70;99.90
63435;DHT22;68814;50.872;5.306;2024-01-15T15:58:03;1.40;99.90
63435;DHT22;68814;50.872;5.306;2024-01-15T16:19:11;1.20;99.90
63435;DHT22;68814;50.872;5.306;2024-01-15T16:29:23;1.10;99.90
63435;DHT22;68814;50.872;5.306;2024-01-15T16:31:49;1.20;99.90
63435;DHT22;68814;50.872;5.306;2024-01-15T16:34:15;1.20;99.90
63435;DHT22;68814;50.872;5.306;2024-01-15T16:49:38;1.10;99.90
63435;DHT22;68814;50.872;5.306;2024-01-15T16:52:04;1.10;99.90
63435;DHT22;68814;50.872;5.306;2024-01-15T16:54:34;1.10;99.90
63435;DHT22;68814;50.872;5.306;2024-01-15T17:27:57;1.10;99.90
63435;DHT22;68814;50.872;5.306;2024-01-15T17:45:55;1.00;99.90
63435;DHT22;68814;50.872;5.306;2024-01-15T17:48:26;1.00;99.90
63435;DHT22;68814;50.872;5.306;2024-01-15T17:50:52;0.90;99.90
63435;DHT22;68814;50.872;5.306;2024-01-15T17:53:19;0.90;99.90
63435;DHT22;68814;50.872;5.306;2024-01-15T17:55:45;0.90;99.90
63435;DHT22;68814;50.872;5.306;2024-01-15T17:58:11;0.90;99.90
63435;DHT22;68814;50.872;5.306;2024-01-15T18:00:38;0.90;99.90
63435;DHT22;68814;50.872;5.306;2024-01-15T18:03:04;0.80;99.90
63435;DHT22;68814;50.872;5.306;2024-01-15T18:05:30;0.80;99.90
63435;DHT22;68814;50.872;5.306;2024-01-15T18:20:48;0.80;99.90
63435;DHT22;68814;50.872;5.306;2024-01-15T18:23:14;0.70;99.90
63435;DHT22;68814;50.872;5.306;2024-01-15T18:25:40;0.70;99.90
63435;DHT22;68814;50.872;5.306;2024-01-15T18:28:09;0.70;99.90
63435;DHT22;68814;50.872;5.306;2024-01-15T18:30:35;0.70;99.90
63435;DHT22;68814;50.872;5.306;2024-01-15T18:33:02;0.70;99.90
63435;DHT22;68814;50.872;5.306;2024-01-15T18:35:28;0.70;99.90
63435;DHT22;68814;50.872;5.306;2024-01-15T18:37:57;0.60;99.90
63435;DHT22;68814;50.872;5.306;2024-01-15T18:40:23;0.60;99.90
63435;DHT22;68814;50.872;5.306;2024-01-15T18:42:49;0.60;99.90
63435;DHT22;68814;50.872;5.306;2024-01-15T18:45:15;0.60;99.90
63435;DHT22;68814;50.872;5.306;2024-01-15T18:52:53;0.60;99.90
63435;DHT22;68814;50.872;5.306;2024-01-15T19:03:05;0.60;99.90
63435;DHT22;68814;50.872;5.306;2024-01-15T19:05:32;0.60;99.90
63435;DHT22;68814;50.872;5.306;2024-01-15T19:07:58;0.60;99.90
63435;DHT22;68814;50.872;5.306;2024-01-15T19:10:25;0.60;99.90
63435;DHT22;68814;50.872;5.306;2024-01-15T19:12:52;0.60;99.90
63435;DHT22;68814;50.872;5.306;2024-01-15T19:15:17;0.60;99.90
63435;DHT22;68814;50.872;5.306;2024-01-15T19:20:18;0.50;99.90
63435;DHT22;68814;50.872;5.306;2024-01-15T19:22:45;0.60;99.90
63435;DHT22;68814;50.872;5.306;2024-01-15T19:25:11;0.60;99.90
63435;DHT22;68814;50.872;5.306;2024-01-15T19:27:38;0.60;99.90
63435;DHT22;68814;50.872;5.306;2024-01-15T19:30:10;0.60;99.90
63435;DHT22;68814;50.872;5.306;2024-01-15T19:32:36;0.60;99.90
63435;DHT22;68814;50.872;5.306;2024-01-15T19:47:59;0.80;99.90
63435;DHT22;68814;50.872;5.306;2024-01-15T19:50:25;0.80;99.90
63435;DHT22;68814;50.872;5.306;2024-01-15T19:52:51;0.80;99.90
63435;DHT22;68814;50.872;5.306;2024-01-15T19:55:17;0.80;99.90
63435;DHT22;68814;50.872;5.306;2024-01-15T20:02:54;0.90;99.90
63435;DHT22;68814;50.872;5.306;2024-01-15T20:05:20;0.90;99.90
63435;DHT22;68814;50.872;5.306;2024-01-15T20:07:46;0.90;99.90
63435;DHT22;68814;50.872;5.306;2024-01-15T20:10:12;0.90;99.90
63435;DHT22;68814;50.872;5.306;2024-01-15T20:15:14;0.90;99.90
63435;DHT22;68814;50.872;5.306;2024-01-15T20:30:36;1.00;99.90
63435;DHT22;68814;50.872;5.306;2024-01-15T20:35:38;1.00;99.90
63435;DHT22;68814;50.872;5.306;2024-01-15T20:38:03;1.00;99.90
63435;DHT22;68814;50.872;5.306;2024-01-15T20:40:29;1.00;99.90
63435;DHT22;68814;50.872;5.306;2024-01-15T20:42:55;0.90;99.90
63435;DHT22;68814;50.872;5.306;2024-01-15T20:45:20;0.90;99.90
63435;DHT22;68814;50.872;5.306;2024-01-15T20:47:46;0.90;99.90
63435;DHT22;68814;50.872;5.306;2024-01-15T20:50:12;0.90;99.90
63435;DHT22;68814;50.872;5.306;2024-01-15T20:52:38;0.90;99.90
63435;DHT22;68814;50.872;5.306;2024-01-15T20:55:06;0.90;99.90
63435;DHT22;68814;50.872;5.306;2024-01-15T20:57:32;0.90;99.90
63435;DHT22;68814;50.872;5.306;2024-01-15T21:15:30;0.90;99.90
63435;DHT22;68814;50.872;5.306;2024-01-15T21:17:55;0.90;99.90
63435;DHT22;68814;50.872;5.306;2024-01-15T21:28:07;1.00;99.90
63435;DHT22;68814;50.872;5.306;2024-01-15T21:30:33;1.00;99.90
63435;DHT22;68814;50.872;5.306;2024-01-15T21:38:11;1.10;99.90
63435;DHT22;68814;50.872;5.306;2024-01-15T21:43:10;1.10;99.90
63435;DHT22;68814;50.872;5.306;2024-01-15T21:48:11;1.10;99.90
63435;DHT22;68814;50.872;5.306;2024-01-15T21:50:37;1.10;99.90
63435;DHT22;68814;50.872;5.306;2024-01-15T21:55:38;1.10;99.90
63435;DHT22;68814;50.872;5.306;2024-01-15T22:05:50;1.00;99.90
63435;DHT22;68814;50.872;5.306;2024-01-15T22:15:59;1.00;99.90
63435;DHT22;68814;50.872;5.306;2024-01-15T22:18:25;1.00;99.90
63435;DHT22;68814;50.872;5.306;2024-01-15T22:20:51;1.00;99.90
63435;DHT22;68814;50.872;5.306;2024-01-15T22:28:28;0.90;99.90
63435;DHT22;68814;50.872;5.306;2024-01-15T22:30:54;0.90;99.90
63435;DHT22;68814;50.872;5.306;2024-01-15T22:38:31;0.80;99.90
63435;DHT22;68814;50.872;5.306;2024-01-15T22:40:57;0.80;99.90
63435;DHT22;68814;50.872;5.306;2024-01-15T22:45:58;0.90;99.90
63435;DHT22;68814;50.872;5.306;2024-01-15T22:51:03;0.90;99.90
63435;DHT22;68814;50.872;5.306;2024-01-15T22:53:32;1.00;99.90
63435;DHT22;68814;50.872;5.306;2024-01-15T22:56:01;1.00;99.90
63435;DHT22;68814;50.872;5.306;2024-01-15T22:58:31;1.00;99.90
63435;DHT22;68814;50.872;5.306;2024-01-15T23:00:57;1.10;99.90
63435;DHT22;68814;50.872;5.306;2024-01-15T23:03:24;1.10;99.90
63435;DHT22;68814;50.872;5.306;2024-01-15T23:13:26;1.10;99.90
63435;DHT22;68814;50.872;5.306;2024-01-15T23:15:57;1.10;99.90
63435;DHT22;68814;50.872;5.306;2024-01-15T23:18:26;1.10;99.90
63435;DHT22;68814;50.872;5.306;2024-01-15T23:20:52;1.10;99.90
63435;DHT22;68814;50.872;5.306;2024-01-15T23:23:17;1.10;99.90
63435;DHT22;68814;50.872;5.306;2024-01-15T23:25:45;1.10;99.90
63435;DHT22;68814;50.872;5.306;2024-01-15T23:30:47;1.10;99.90
63435;DHT22;68814;50.872;5.306;2024-01-15T23:33:12;1.10;99.90
63435;DHT22;68814;50.872;5.306;2024-01-15T23:35:42;1.10;99.90
63435;DHT22;68814;50.872;5.306;2024-01-15T23:40:43;1.10;99.90
63435;DHT22;68814;50.872;5.306;2024-01-15T23:43:08;1.10;99.90
63435;DHT22;68814;50.872;5.306;2024-01-15T23:45:35;1.10;99.90
63435;DHT22;68814;50.872;5.306;2024-01-15T23:48:01;1.10;99.90
63435;DHT22;68814;50.872;5.306;2024-01-15T23:50:31;1.10;99.90
63435;DHT22;68814;50.872;5.306;2024-01-15T23:52:57;1.10;99.90
63435;DHT22;68814;50.872;5.306;2024-01-15T23:55:23;1.10;99.90
